sensor_id;sensor_type;location;lat;lon;timestamp;P1;durP1;ratioP1;P2;durP2;ratioP2
54368;SDS011;40266;52.434;17.056;2023-08-21T00:00:23;21.10;;;13.40;;
54368;SDS011;40266;52.434;17.056;2023-08-21T00:03:26;23.10;;;14.60;;
54368;SDS011;40266;52.434;17.056;2023-08-21T00:06:10;19.40;;;12.10;;
54368;SDS011;40266;52.434;17.056;2023-08-21T00:08:53;17.50;;;11.90;;
54368;SDS011;40266;52.434;17.056;2023-08-21T00:11:36;20.30;;;12.90;;
54368;SDS011;40266;52.434;17.056;2023-08-21T00:14:19;20.70;;;13.40;;
54368;SDS011;40266;52.434;17.056;2023-08-21T00:17:02;18.70;;;10.00;;
54368;SDS011;40266;52.434;17.056;2023-08-21T00:19:46;16.30;;;10.60;;
54368;SDS011;40266;52.434;17.056;2023-08-21T00:22:28;19.40;;;9.70;;
54368;SDS011;40266;52.434;17.056;2023-08-21T00:25:11;20.10;;;10.20;;
54368;SDS011;40266;52.434;17.056;2023-08-21T00:27:54;17.60;;;11.70;;
54368;SDS011;40266;52.434;17.056;2023-08-21T00:30:37;16.60;;;10.40;;
54368;SDS011;40266;52.434;17.056;2023-08-21T00:33:20;20.90;;;12.10;;
54368;SDS011;40266;52.434;17.056;2023-08-21T00:36:03;18.40;;;11.90;;
54368;SDS011;40266;52.434;17.056;2023-08-21T00:38:46;19.70;;;12.10;;
54368;SDS011;40266;52.434;17.056;2023-08-21T00:41:30;22.30;;;12.40;;
54368;SDS011;40266;52.434;17.056;2023-08-21T00:44:14;20.80;;;12.80;;
54368;SDS011;40266;52.434;17.056;2023-08-21T00:46:57;19.60;;;13.10;;
54368;SDS011;40266;52.434;17.056;2023-08-21T00:49:41;19.60;;;13.00;;
54368;SDS011;40266;52.434;17.056;2023-08-21T00:52:25;21.40;;;12.70;;
54368;SDS011;40266;52.434;17.056;2023-08-21T00:55:08;18.90;;;12.10;;
54368;SDS011;40266;52.434;17.056;2023-08-21T00:57:51;19.80;;;13.30;;
54368;SDS011;40266;52.434;17.056;2023-08-21T01:00:35;19.10;;;12.40;;
54368;SDS011;40266;52.434;17.056;2023-08-21T01:03:18;18.90;;;12.10;;
54368;SDS011;40266;52.434;17.056;2023-08-21T01:06:01;21.70;;;12.00;;
54368;SDS011;40266;52.434;17.056;2023-08-21T01:08:47;17.60;;;11.10;;
54368;SDS011;40266;52.434;17.056;2023-08-21T01:11:42;19.30;;;10.80;;
54368;SDS011;40266;52.434;17.056;2023-08-21T01:14:33;16.50;;;10.70;;
54368;SDS011;40266;52.434;17.056;2023-08-21T01:17:26;20.20;;;11.00;;
54368;SDS011;40266;52.434;17.056;2023-08-21T01:20:12;17.00;;;10.30;;
54368;SDS011;40266;52.434;17.056;2023-08-21T01:22:56;14.20;;;9.20;;
54368;SDS011;40266;52.434;17.056;2023-08-21T01:25:39;16.60;;;10.20;;
54368;SDS011;40266;52.434;17.056;2023-08-21T01:28:22;14.20;;;8.90;;
54368;SDS011;40266;52.434;17.056;2023-08-21T01:31:18;14.00;;;9.20;;
54368;SDS011;40266;52.434;17.056;2023-08-21T01:34:06;15.00;;;9.80;;
54368;SDS011;40266;52.434;17.056;2023-08-21T01:36:53;15.80;;;9.60;;
54368;SDS011;40266;52.434;17.056;2023-08-21T01:39:36;15.20;;;9.30;;
54368;SDS011;40266;52.434;17.056;2023-08-21T01:42:20;17.40;;;9.80;;
54368;SDS011;40266;52.434;17.056;2023-08-21T01:45:05;15.00;;;9.60;;
54368;SDS011;40266;52.434;17.056;2023-08-21T01:47:48;14.60;;;9.90;;
54368;SDS011;40266;52.434;17.056;2023-08-21T01:50:31;14.30;;;9.30;;
54368;SDS011;40266;52.434;17.056;2023-08-21T01:53:14;16.20;;;9.60;;
54368;SDS011;40266;52.434;17.056;2023-08-21T01:55:57;16.20;;;9.70;;
54368;SDS011;40266;52.434;17.056;2023-08-21T01:58:40;14.80;;;9.10;;
54368;SDS011;40266;52.434;17.056;2023-08-21T02:01:23;14.90;;;9.40;;
54368;SDS011;40266;52.434;17.056;2023-08-21T02:04:06;14.70;;;9.40;;
54368;SDS011;40266;52.434;17.056;2023-08-21T02:06:49;14.10;;;8.80;;
54368;SDS011;40266;52.434;17.056;2023-08-21T02:09:32;14.50;;;9.30;;
54368;SDS011;40266;52.434;17.056;2023-08-21T02:12:14;13.20;;;8.70;;
54368;SDS011;40266;52.434;17.056;2023-08-21T02:14:57;13.90;;;8.60;;
54368;SDS011;40266;52.434;17.056;2023-08-21T02:17:41;13.30;;;7.80;;
54368;SDS011;40266;52.434;17.056;2023-08-21T02:20:27;13.70;;;8.20;;
54368;SDS011;40266;52.434;17.056;2023-08-21T02:23:09;14.10;;;8.20;;
54368;SDS011;40266;52.434;17.056;2023-08-21T02:25:53;12.60;;;7.50;;
54368;SDS011;40266;52.434;17.056;2023-08-21T02:28:36;15.70;;;7.90;;
54368;SDS011;40266;52.434;17.056;2023-08-21T02:31:19;11.30;;;7.50;;
54368;SDS011;40266;52.434;17.056;2023-08-21T02:34:02;11.80;;;7.50;;
54368;SDS011;40266;52.434;17.056;2023-08-21T02:36:45;14.00;;;8.70;;
54368;SDS011;40266;52.434;17.056;2023-08-21T02:39:28;11.60;;;7.60;;
54368;SDS011;40266;52.434;17.056;2023-08-21T02:42:11;13.10;;;7.90;;
54368;SDS011;40266;52.434;17.056;2023-08-21T02:44:54;13.20;;;7.60;;
54368;SDS011;40266;52.434;17.056;2023-08-21T02:47:37;14.60;;;9.30;;
54368;SDS011;40266;52.434;17.056;2023-08-21T02:50:21;12.70;;;7.50;;
54368;SDS011;40266;52.434;17.056;2023-08-21T02:53:05;12.90;;;8.00;;
54368;SDS011;40266;52.434;17.056;2023-08-21T02:55:48;14.30;;;7.70;;
54368;SDS011;40266;52.434;17.056;2023-08-21T02:58:30;14.50;;;7.80;;
54368;SDS011;40266;52.434;17.056;2023-08-21T03:01:13;12.70;;;7.40;;
54368;SDS011;40266;52.434;17.056;2023-08-21T03:03:57;12.60;;;7.10;;
54368;SDS011;40266;52.434;17.056;2023-08-21T03:06:40;14.40;;;7.00;;
54368;SDS011;40266;52.434;17.056;2023-08-21T03:09:23;14.00;;;8.60;;
54368;SDS011;40266;52.434;17.056;2023-08-21T03:12:06;12.90;;;7.80;;
54368;SDS011;40266;52.434;17.056;2023-08-21T03:14:50;10.90;;;7.60;;
54368;SDS011;40266;52.434;17.056;2023-08-21T03:17:34;13.30;;;7.70;;
54368;SDS011;40266;52.434;17.056;2023-08-21T03:20:17;11.20;;;7.80;;
54368;SDS011;40266;52.434;17.056;2023-08-21T03:23:01;12.70;;;7.70;;
54368;SDS011;40266;52.434;17.056;2023-08-21T03:25:44;13.00;;;8.00;;
54368;SDS011;40266;52.434;17.056;2023-08-21T03:28:27;16.30;;;8.20;;
54368;SDS011;40266;52.434;17.056;2023-08-21T03:31:10;14.10;;;8.30;;
54368;SDS011;40266;52.434;17.056;2023-08-21T03:33:54;12.30;;;7.80;;
54368;SDS011;40266;52.434;17.056;2023-08-21T03:36:37;19.40;;;8.50;;
54368;SDS011;40266;52.434;17.056;2023-08-21T03:39:21;13.50;;;7.20;;
54368;SDS011;40266;52.434;17.056;2023-08-21T03:42:05;13.00;;;8.20;;
54368;SDS011;40266;52.434;17.056;2023-08-21T03:44:48;13.50;;;8.50;;
54368;SDS011;40266;52.434;17.056;2023-08-21T03:47:33;12.70;;;7.40;;
54368;SDS011;40266;52.434;17.056;2023-08-21T03:50:19;14.60;;;8.00;;
54368;SDS011;40266;52.434;17.056;2023-08-21T03:53:03;12.20;;;7.90;;
54368;SDS011;40266;52.434;17.056;2023-08-21T03:55:46;13.40;;;8.60;;
54368;SDS011;40266;52.434;17.056;2023-08-21T03:58:29;13.80;;;7.80;;
54368;SDS011;40266;52.434;17.056;2023-08-21T04:01:12;15.60;;;8.40;;
54368;SDS011;40266;52.434;17.056;2023-08-21T04:03:55;15.90;;;8.70;;
54368;SDS011;40266;52.434;17.056;2023-08-21T04:06:38;14.90;;;7.10;;
54368;SDS011;40266;52.434;17.056;2023-08-21T04:09:21;13.00;;;7.30;;
54368;SDS011;40266;52.434;17.056;2023-08-21T04:12:05;11.60;;;6.80;;
54368;SDS011;40266;52.434;17.056;2023-08-21T04:14:48;9.40;;;6.60;;
54368;SDS011;40266;52.434;17.056;2023-08-21T04:17:31;10.30;;;7.00;;
54368;SDS011;40266;52.434;17.056;2023-08-21T04:20:14;10.00;;;7.10;;
54368;SDS011;40266;52.434;17.056;2023-08-21T04:22:58;11.10;;;6.70;;
54368;SDS011;40266;52.434;17.056;2023-08-21T04:25:41;12.00;;;6.50;;
54368;SDS011;40266;52.434;17.056;2023-08-21T04:28:26;10.70;;;6.40;;
54368;SDS011;40266;52.434;17.056;2023-08-21T04:31:09;12.00;;;7.00;;
54368;SDS011;40266;52.434;17.056;2023-08-21T04:33:52;8.60;;;5.90;;
54368;SDS011;40266;52.434;17.056;2023-08-21T04:36:36;9.60;;;6.90;;
54368;SDS011;40266;52.434;17.056;2023-08-21T04:39:18;10.90;;;7.40;;
54368;SDS011;40266;52.434;17.056;2023-08-21T04:42:02;14.00;;;8.30;;
54368;SDS011;40266;52.434;17.056;2023-08-21T04:44:45;16.50;;;8.70;;
54368;SDS011;40266;52.434;17.056;2023-08-21T04:47:29;11.00;;;7.50;;
54368;SDS011;40266;52.434;17.056;2023-08-21T04:50:14;13.10;;;8.80;;
54368;SDS011;40266;52.434;17.056;2023-08-21T04:52:58;20.90;;;10.20;;
54368;SDS011;40266;52.434;17.056;2023-08-21T04:55:42;15.10;;;9.30;;
54368;SDS011;40266;52.434;17.056;2023-08-21T04:58:25;18.90;;;9.90;;
54368;SDS011;40266;52.434;17.056;2023-08-21T05:01:08;18.90;;;9.80;;
54368;SDS011;40266;52.434;17.056;2023-08-21T05:03:55;21.50;;;10.00;;
54368;SDS011;40266;52.434;17.056;2023-08-21T05:06:38;16.80;;;9.80;;
54368;SDS011;40266;52.434;17.056;2023-08-21T05:09:21;18.20;;;9.50;;
54368;SDS011;40266;52.434;17.056;2023-08-21T05:12:05;17.30;;;10.20;;
54368;SDS011;40266;52.434;17.056;2023-08-21T05:14:48;19.60;;;8.80;;
54368;SDS011;40266;52.434;17.056;2023-08-21T05:17:31;17.70;;;9.40;;
54368;SDS011;40266;52.434;17.056;2023-08-21T05:20:14;16.70;;;9.00;;
54368;SDS011;40266;52.434;17.056;2023-08-21T05:22:58;14.90;;;8.20;;
54368;SDS011;40266;52.434;17.056;2023-08-21T05:25:42;15.10;;;9.00;;
54368;SDS011;40266;52.434;17.056;2023-08-21T05:28:28;16.60;;;8.40;;
54368;SDS011;40266;52.434;17.056;2023-08-21T05:31:11;15.60;;;8.00;;
54368;SDS011;40266;52.434;17.056;2023-08-21T05:34:05;13.10;;;7.60;;
54368;SDS011;40266;52.434;17.056;2023-08-21T05:36:48;16.50;;;8.60;;
54368;SDS011;40266;52.434;17.056;2023-08-21T05:39:32;13.50;;;8.00;;
54368;SDS011;40266;52.434;17.056;2023-08-21T05:42:14;14.60;;;8.00;;
54368;SDS011;40266;52.434;17.056;2023-08-21T05:44:58;13.00;;;7.70;;
54368;SDS011;40266;52.434;17.056;2023-08-21T05:47:42;16.20;;;8.20;;
54368;SDS011;40266;52.434;17.056;2023-08-21T05:50:25;13.40;;;7.30;;
54368;SDS011;40266;52.434;17.056;2023-08-21T05:53:10;12.10;;;7.00;;
54368;SDS011;40266;52.434;17.056;2023-08-21T05:55:54;11.50;;;6.00;;
54368;SDS011;40266;52.434;17.056;2023-08-21T05:58:37;9.50;;;5.80;;
54368;SDS011;40266;52.434;17.056;2023-08-21T06:01:22;12.10;;;6.60;;
54368;SDS011;40266;52.434;17.056;2023-08-21T06:04:05;9.90;;;5.80;;
54368;SDS011;40266;52.434;17.056;2023-08-21T06:07:14;9.40;;;5.40;;
54368;SDS011;40266;52.434;17.056;2023-08-21T06:09:57;9.60;;;5.80;;
54368;SDS011;40266;52.434;17.056;2023-08-21T06:12:40;13.00;;;5.90;;
54368;SDS011;40266;52.434;17.056;2023-08-21T06:15:24;13.00;;;5.70;;
54368;SDS011;40266;52.434;17.056;2023-08-21T06:18:07;9.10;;;5.40;;
54368;SDS011;40266;52.434;17.056;2023-08-21T06:20:50;10.50;;;5.50;;
54368;SDS011;40266;52.434;17.056;2023-08-21T06:23:36;11.10;;;5.50;;
54368;SDS011;40266;52.434;17.056;2023-08-21T06:26:19;9.80;;;5.20;;
54368;SDS011;40266;52.434;17.056;2023-08-21T06:29:02;7.50;;;5.50;;
54368;SDS011;40266;52.434;17.056;2023-08-21T06:31:45;10.90;;;5.10;;
54368;SDS011;40266;52.434;17.056;2023-08-21T06:34:28;11.00;;;4.90;;
54368;SDS011;40266;52.434;17.056;2023-08-21T06:37:11;9.10;;;5.50;;
54368;SDS011;40266;52.434;17.056;2023-08-21T06:39:55;11.60;;;5.90;;
54368;SDS011;40266;52.434;17.056;2023-08-21T06:42:38;8.60;;;4.70;;
54368;SDS011;40266;52.434;17.056;2023-08-21T06:45:22;10.70;;;4.60;;
54368;SDS011;40266;52.434;17.056;2023-08-21T06:48:05;7.70;;;4.70;;
54368;SDS011;40266;52.434;17.056;2023-08-21T06:50:48;11.60;;;4.90;;
54368;SDS011;40266;52.434;17.056;2023-08-21T06:53:32;6.80;;;4.10;;
54368;SDS011;40266;52.434;17.056;2023-08-21T06:56:15;10.30;;;4.20;;
54368;SDS011;40266;52.434;17.056;2023-08-21T06:58:58;9.10;;;4.70;;
54368;SDS011;40266;52.434;17.056;2023-08-21T07:01:41;9.80;;;4.00;;
54368;SDS011;40266;52.434;17.056;2023-08-21T07:04:24;11.60;;;5.00;;
54368;SDS011;40266;52.434;17.056;2023-08-21T07:07:07;8.90;;;4.50;;
54368;SDS011;40266;52.434;17.056;2023-08-21T07:09:50;7.10;;;3.90;;
54368;SDS011;40266;52.434;17.056;2023-08-21T07:12:33;9.30;;;4.30;;
54368;SDS011;40266;52.434;17.056;2023-08-21T07:15:17;7.40;;;4.20;;
54368;SDS011;40266;52.434;17.056;2023-08-21T07:18:00;7.70;;;3.80;;
54368;SDS011;40266;52.434;17.056;2023-08-21T07:20:44;10.00;;;4.10;;
54368;SDS011;40266;52.434;17.056;2023-08-21T07:23:27;8.20;;;4.00;;
54368;SDS011;40266;52.434;17.056;2023-08-21T07:26:10;8.60;;;4.20;;
54368;SDS011;40266;52.434;17.056;2023-08-21T07:28:54;8.80;;;3.90;;
54368;SDS011;40266;52.434;17.056;2023-08-21T07:31:37;9.60;;;4.20;;
54368;SDS011;40266;52.434;17.056;2023-08-21T07:34:20;7.20;;;4.30;;
54368;SDS011;40266;52.434;17.056;2023-08-21T07:37:03;9.40;;;4.70;;
54368;SDS011;40266;52.434;17.056;2023-08-21T07:39:47;12.50;;;5.00;;
54368;SDS011;40266;52.434;17.056;2023-08-21T07:42:30;7.40;;;3.90;;
54368;SDS011;40266;52.434;17.056;2023-08-21T07:45:13;7.60;;;4.40;;
54368;SDS011;40266;52.434;17.056;2023-08-21T07:47:56;7.80;;;3.90;;
54368;SDS011;40266;52.434;17.056;2023-08-21T07:50:56;12.20;;;3.90;;
54368;SDS011;40266;52.434;17.056;2023-08-21T07:53:39;9.40;;;4.00;;
54368;SDS011;40266;52.434;17.056;2023-08-21T07:56:22;5.40;;;3.30;;
54368;SDS011;40266;52.434;17.056;2023-08-21T07:59:05;8.60;;;4.30;;
54368;SDS011;40266;52.434;17.056;2023-08-21T08:01:49;10.40;;;4.70;;
54368;SDS011;40266;52.434;17.056;2023-08-21T08:04:32;6.40;;;3.80;;
54368;SDS011;40266;52.434;17.056;2023-08-21T08:07:15;9.80;;;4.90;;
54368;SDS011;40266;52.434;17.056;2023-08-21T08:09:58;8.60;;;4.10;;
54368;SDS011;40266;52.434;17.056;2023-08-21T08:12:42;8.70;;;4.40;;
54368;SDS011;40266;52.434;17.056;2023-08-21T08:15:26;6.00;;;3.60;;
54368;SDS011;40266;52.434;17.056;2023-08-21T08:18:12;8.60;;;3.50;;
54368;SDS011;40266;52.434;17.056;2023-08-21T08:20:56;7.10;;;3.70;;
54368;SDS011;40266;52.434;17.056;2023-08-21T08:23:39;7.00;;;4.00;;
54368;SDS011;40266;52.434;17.056;2023-08-21T08:26:22;6.00;;;3.80;;
54368;SDS011;40266;52.434;17.056;2023-08-21T08:29:05;8.70;;;3.70;;
54368;SDS011;40266;52.434;17.056;2023-08-21T08:31:48;10.30;;;4.50;;
54368;SDS011;40266;52.434;17.056;2023-08-21T08:34:31;7.10;;;3.70;;
54368;SDS011;40266;52.434;17.056;2023-08-21T08:37:14;7.10;;;4.00;;
54368;SDS011;40266;52.434;17.056;2023-08-21T08:39:57;6.50;;;4.10;;
54368;SDS011;40266;52.434;17.056;2023-08-21T08:42:40;10.90;;;4.70;;
54368;SDS011;40266;52.434;17.056;2023-08-21T08:45:32;9.30;;;3.50;;
54368;SDS011;40266;52.434;17.056;2023-08-21T08:48:15;7.60;;;3.80;;
54368;SDS011;40266;52.434;17.056;2023-08-21T08:51:00;7.20;;;3.80;;
54368;SDS011;40266;52.434;17.056;2023-08-21T08:53:47;6.70;;;4.10;;
54368;SDS011;40266;52.434;17.056;2023-08-21T08:56:30;7.30;;;3.80;;
54368;SDS011;40266;52.434;17.056;2023-08-21T08:59:13;4.80;;;3.10;;
54368;SDS011;40266;52.434;17.056;2023-08-21T09:01:57;8.90;;;3.70;;
54368;SDS011;40266;52.434;17.056;2023-08-21T09:04:40;6.50;;;3.40;;
54368;SDS011;40266;52.434;17.056;2023-08-21T09:07:25;6.50;;;3.30;;
54368;SDS011;40266;52.434;17.056;2023-08-21T09:10:15;9.60;;;4.00;;
54368;SDS011;40266;52.434;17.056;2023-08-21T09:12:58;5.30;;;3.60;;
54368;SDS011;40266;52.434;17.056;2023-08-21T09:15:45;4.60;;;3.20;;
54368;SDS011;40266;52.434;17.056;2023-08-21T09:18:30;4.90;;;3.30;;
54368;SDS011;40266;52.434;17.056;2023-08-21T09:21:15;7.60;;;3.70;;
54368;SDS011;40266;52.434;17.056;2023-08-21T09:24:00;5.30;;;3.10;;
54368;SDS011;40266;52.434;17.056;2023-08-21T09:26:45;5.70;;;3.10;;
54368;SDS011;40266;52.434;17.056;2023-08-21T09:29:37;9.00;;;3.90;;
54368;SDS011;40266;52.434;17.056;2023-08-21T09:32:22;8.60;;;3.20;;
54368;SDS011;40266;52.434;17.056;2023-08-21T09:35:05;6.30;;;3.10;;
54368;SDS011;40266;52.434;17.056;2023-08-21T09:37:49;8.50;;;3.40;;
54368;SDS011;40266;52.434;17.056;2023-08-21T09:40:39;7.30;;;3.20;;
54368;SDS011;40266;52.434;17.056;2023-08-21T09:43:23;7.50;;;4.10;;
54368;SDS011;40266;52.434;17.056;2023-08-21T09:46:07;6.60;;;3.50;;
54368;SDS011;40266;52.434;17.056;2023-08-21T09:48:51;6.40;;;3.40;;
54368;SDS011;40266;52.434;17.056;2023-08-21T09:51:35;6.00;;;3.30;;
54368;SDS011;40266;52.434;17.056;2023-08-21T09:54:18;6.90;;;3.10;;
54368;SDS011;40266;52.434;17.056;2023-08-21T09:57:02;9.10;;;3.40;;
54368;SDS011;40266;52.434;17.056;2023-08-21T09:59:46;6.90;;;3.30;;
54368;SDS011;40266;52.434;17.056;2023-08-21T10:02:30;5.80;;;3.30;;
54368;SDS011;40266;52.434;17.056;2023-08-21T10:05:15;7.10;;;2.80;;
54368;SDS011;40266;52.434;17.056;2023-08-21T10:08:03;5.00;;;3.30;;
54368;SDS011;40266;52.434;17.056;2023-08-21T10:10:49;8.10;;;2.90;;
54368;SDS011;40266;52.434;17.056;2023-08-21T10:13:32;5.30;;;3.00;;
54368;SDS011;40266;52.434;17.056;2023-08-21T10:16:17;6.10;;;2.90;;
54368;SDS011;40266;52.434;17.056;2023-08-21T10:19:04;4.50;;;2.80;;
54368;SDS011;40266;52.434;17.056;2023-08-21T10:21:54;6.40;;;3.20;;
54368;SDS011;40266;52.434;17.056;2023-08-21T10:24:38;9.50;;;3.20;;
54368;SDS011;40266;52.434;17.056;2023-08-21T10:27:28;7.40;;;3.20;;
54368;SDS011;40266;52.434;17.056;2023-08-21T10:30:13;7.20;;;3.50;;
54368;SDS011;40266;52.434;17.056;2023-08-21T10:32:58;6.80;;;2.70;;
54368;SDS011;40266;52.434;17.056;2023-08-21T10:35:42;7.40;;;3.20;;
54368;SDS011;40266;52.434;17.056;2023-08-21T10:38:25;7.70;;;3.50;;
54368;SDS011;40266;52.434;17.056;2023-08-21T10:41:08;7.50;;;3.60;;
54368;SDS011;40266;52.434;17.056;2023-08-21T10:43:53;7.70;;;3.40;;
54368;SDS011;40266;52.434;17.056;2023-08-21T10:46:50;8.10;;;3.50;;
54368;SDS011;40266;52.434;17.056;2023-08-21T10:49:34;8.20;;;3.30;;
54368;SDS011;40266;52.434;17.056;2023-08-21T10:52:20;8.30;;;3.70;;
54368;SDS011;40266;52.434;17.056;2023-08-21T10:55:06;12.30;;;4.40;;
54368;SDS011;40266;52.434;17.056;2023-08-21T10:57:52;6.70;;;3.10;;
54368;SDS011;40266;52.434;17.056;2023-08-21T11:00:35;7.80;;;3.20;;
54368;SDS011;40266;52.434;17.056;2023-08-21T11:03:20;6.00;;;3.10;;
54368;SDS011;40266;52.434;17.056;2023-08-21T11:06:03;9.90;;;3.20;;
54368;SDS011;40266;52.434;17.056;2023-08-21T11:08:47;5.30;;;3.60;;
54368;SDS011;40266;52.434;17.056;2023-08-21T11:11:30;8.30;;;3.70;;
54368;SDS011;40266;52.434;17.056;2023-08-21T11:14:27;6.00;;;3.20;;
54368;SDS011;40266;52.434;17.056;2023-08-21T11:20:02;6.90;;;3.50;;
54368;SDS011;40266;52.434;17.056;2023-08-21T11:22:50;8.20;;;3.60;;
54368;SDS011;40266;52.434;17.056;2023-08-21T11:25:41;8.40;;;3.60;;
54368;SDS011;40266;52.434;17.056;2023-08-21T11:28:25;6.80;;;3.50;;
54368;SDS011;40266;52.434;17.056;2023-08-21T11:31:13;8.10;;;3.30;;
54368;SDS011;40266;52.434;17.056;2023-08-21T11:33:56;7.90;;;3.50;;
54368;SDS011;40266;52.434;17.056;2023-08-21T11:36:43;10.60;;;4.00;;
54368;SDS011;40266;52.434;17.056;2023-08-21T11:39:26;7.10;;;3.20;;
54368;SDS011;40266;52.434;17.056;2023-08-21T11:42:12;9.40;;;3.80;;
54368;SDS011;40266;52.434;17.056;2023-08-21T11:44:56;7.00;;;3.30;;
54368;SDS011;40266;52.434;17.056;2023-08-21T11:47:39;9.10;;;3.70;;
54368;SDS011;40266;52.434;17.056;2023-08-21T11:50:25;9.30;;;3.60;;
54368;SDS011;40266;52.434;17.056;2023-08-21T11:53:10;9.70;;;3.70;;
54368;SDS011;40266;52.434;17.056;2023-08-21T11:55:53;7.50;;;3.60;;
54368;SDS011;40266;52.434;17.056;2023-08-21T11:58:40;9.90;;;3.90;;
54368;SDS011;40266;52.434;17.056;2023-08-21T12:01:26;13.40;;;3.50;;
54368;SDS011;40266;52.434;17.056;2023-08-21T12:04:15;8.30;;;3.80;;
54368;SDS011;40266;52.434;17.056;2023-08-21T12:06:59;11.00;;;3.60;;
54368;SDS011;40266;52.434;17.056;2023-08-21T12:09:45;6.00;;;3.30;;
54368;SDS011;40266;52.434;17.056;2023-08-21T12:12:30;7.10;;;3.60;;
54368;SDS011;40266;52.434;17.056;2023-08-21T12:15:13;7.30;;;3.50;;
54368;SDS011;40266;52.434;17.056;2023-08-21T12:17:56;8.80;;;4.50;;
54368;SDS011;40266;52.434;17.056;2023-08-21T12:20:39;8.40;;;3.60;;
54368;SDS011;40266;52.434;17.056;2023-08-21T12:23:25;14.70;;;4.00;;
54368;SDS011;40266;52.434;17.056;2023-08-21T12:26:08;8.50;;;3.50;;
54368;SDS011;40266;52.434;17.056;2023-08-21T12:28:54;7.40;;;3.40;;
54368;SDS011;40266;52.434;17.056;2023-08-21T12:31:38;6.10;;;3.30;;
54368;SDS011;40266;52.434;17.056;2023-08-21T12:34:21;8.30;;;3.50;;
54368;SDS011;40266;52.434;17.056;2023-08-21T12:37:04;9.80;;;4.10;;
54368;SDS011;40266;52.434;17.056;2023-08-21T12:39:47;9.90;;;3.30;;
54368;SDS011;40266;52.434;17.056;2023-08-21T12:42:30;12.30;;;3.90;;
54368;SDS011;40266;52.434;17.056;2023-08-21T12:45:15;9.80;;;4.20;;
54368;SDS011;40266;52.434;17.056;2023-08-21T12:47:58;7.00;;;3.60;;
54368;SDS011;40266;52.434;17.056;2023-08-21T12:50:41;8.10;;;3.50;;
54368;SDS011;40266;52.434;17.056;2023-08-21T12:53:26;7.40;;;3.80;;
54368;SDS011;40266;52.434;17.056;2023-08-21T12:56:09;8.70;;;3.60;;
54368;SDS011;40266;52.434;17.056;2023-08-21T12:58:52;10.20;;;4.60;;
54368;SDS011;40266;52.434;17.056;2023-08-21T13:01:35;7.40;;;3.50;;
54368;SDS011;40266;52.434;17.056;2023-08-21T13:04:20;5.10;;;2.90;;
54368;SDS011;40266;52.434;17.056;2023-08-21T13:07:03;6.40;;;2.90;;
54368;SDS011;40266;52.434;17.056;2023-08-21T13:09:47;8.10;;;3.30;;
54368;SDS011;40266;52.434;17.056;2023-08-21T13:12:31;8.90;;;3.30;;
54368;SDS011;40266;52.434;17.056;2023-08-21T13:15:14;9.20;;;3.70;;
54368;SDS011;40266;52.434;17.056;2023-08-21T13:17:59;4.80;;;3.20;;
54368;SDS011;40266;52.434;17.056;2023-08-21T13:21:03;12.40;;;3.50;;
54368;SDS011;40266;52.434;17.056;2023-08-21T13:23:46;8.50;;;3.50;;
54368;SDS011;40266;52.434;17.056;2023-08-21T13:26:29;8.20;;;3.10;;
54368;SDS011;40266;52.434;17.056;2023-08-21T13:29:16;7.10;;;3.40;;
54368;SDS011;40266;52.434;17.056;2023-08-21T13:31:59;8.00;;;3.70;;
54368;SDS011;40266;52.434;17.056;2023-08-21T13:34:42;8.70;;;3.30;;
54368;SDS011;40266;52.434;17.056;2023-08-21T13:37:25;8.60;;;3.00;;
54368;SDS011;40266;52.434;17.056;2023-08-21T13:40:18;7.60;;;3.00;;
54368;SDS011;40266;52.434;17.056;2023-08-21T13:43:06;7.60;;;3.40;;
54368;SDS011;40266;52.434;17.056;2023-08-21T13:45:54;6.40;;;3.10;;
54368;SDS011;40266;52.434;17.056;2023-08-21T13:49:12;3.40;;;2.90;;
54368;SDS011;40266;52.434;17.056;2023-08-21T13:52:13;5.90;;;3.40;;
54368;SDS011;40266;52.434;17.056;2023-08-21T13:55:03;6.60;;;3.20;;
54368;SDS011;40266;52.434;17.056;2023-08-21T13:58:17;8.80;;;3.30;;
54368;SDS011;40266;52.434;17.056;2023-08-21T14:01:20;9.40;;;3.50;;
54368;SDS011;40266;52.434;17.056;2023-08-21T14:04:39;9.00;;;3.00;;
54368;SDS011;40266;52.434;17.056;2023-08-21T14:07:36;10.00;;;3.70;;
54368;SDS011;40266;52.434;17.056;2023-08-21T14:10:21;6.00;;;3.50;;
54368;SDS011;40266;52.434;17.056;2023-08-21T14:13:03;7.20;;;3.50;;
54368;SDS011;40266;52.434;17.056;2023-08-21T14:15:46;7.30;;;4.00;;
54368;SDS011;40266;52.434;17.056;2023-08-21T14:18:30;8.70;;;3.60;;
54368;SDS011;40266;52.434;17.056;2023-08-21T14:21:14;9.80;;;3.90;;
54368;SDS011;40266;52.434;17.056;2023-08-21T14:23:57;11.60;;;4.10;;
54368;SDS011;40266;52.434;17.056;2023-08-21T14:26:40;10.00;;;3.90;;
54368;SDS011;40266;52.434;17.056;2023-08-21T14:29:23;14.70;;;5.10;;
54368;SDS011;40266;52.434;17.056;2023-08-21T14:32:06;11.80;;;4.80;;
54368;SDS011;40266;52.434;17.056;2023-08-21T14:34:49;5.90;;;3.50;;
54368;SDS011;40266;52.434;17.056;2023-08-21T14:37:32;6.40;;;3.80;;
54368;SDS011;40266;52.434;17.056;2023-08-21T14:40:15;8.90;;;4.50;;
54368;SDS011;40266;52.434;17.056;2023-08-21T14:42:58;9.10;;;3.90;;
54368;SDS011;40266;52.434;17.056;2023-08-21T14:45:41;9.00;;;4.20;;
54368;SDS011;40266;52.434;17.056;2023-08-21T14:48:24;8.40;;;4.00;;
54368;SDS011;40266;52.434;17.056;2023-08-21T14:51:07;6.40;;;3.90;;
54368;SDS011;40266;52.434;17.056;2023-08-21T14:53:50;7.30;;;3.60;;
54368;SDS011;40266;52.434;17.056;2023-08-21T14:56:34;6.50;;;3.50;;
54368;SDS011;40266;52.434;17.056;2023-08-21T14:59:17;7.60;;;4.00;;
54368;SDS011;40266;52.434;17.056;2023-08-21T15:02:00;5.00;;;3.70;;
54368;SDS011;40266;52.434;17.056;2023-08-21T15:04:43;8.10;;;4.20;;
54368;SDS011;40266;52.434;17.056;2023-08-21T15:07:26;6.40;;;4.20;;
54368;SDS011;40266;52.434;17.056;2023-08-21T15:10:10;13.20;;;4.70;;
54368;SDS011;40266;52.434;17.056;2023-08-21T15:12:53;10.90;;;4.30;;
54368;SDS011;40266;52.434;17.056;2023-08-21T15:15:37;12.80;;;4.20;;
54368;SDS011;40266;52.434;17.056;2023-08-21T15:18:20;6.90;;;3.90;;
54368;SDS011;40266;52.434;17.056;2023-08-21T15:21:03;7.30;;;3.80;;
54368;SDS011;40266;52.434;17.056;2023-08-21T15:23:46;9.80;;;4.00;;
54368;SDS011;40266;52.434;17.056;2023-08-21T15:26:29;6.90;;;4.10;;
54368;SDS011;40266;52.434;17.056;2023-08-21T15:29:12;7.90;;;3.70;;
54368;SDS011;40266;52.434;17.056;2023-08-21T15:31:55;5.10;;;3.70;;
54368;SDS011;40266;52.434;17.056;2023-08-21T15:34:38;10.50;;;4.70;;
54368;SDS011;40266;52.434;17.056;2023-08-21T15:37:21;7.10;;;3.90;;
54368;SDS011;40266;52.434;17.056;2023-08-21T15:40:06;8.10;;;4.30;;
54368;SDS011;40266;52.434;17.056;2023-08-21T15:42:51;6.70;;;4.20;;
54368;SDS011;40266;52.434;17.056;2023-08-21T15:45:34;8.00;;;3.90;;
54368;SDS011;40266;52.434;17.056;2023-08-21T15:48:17;6.40;;;3.80;;
54368;SDS011;40266;52.434;17.056;2023-08-21T15:51:01;5.20;;;3.60;;
54368;SDS011;40266;52.434;17.056;2023-08-21T15:53:46;7.30;;;3.90;;
54368;SDS011;40266;52.434;17.056;2023-08-21T15:56:28;7.40;;;4.20;;
54368;SDS011;40266;52.434;17.056;2023-08-21T15:59:12;7.00;;;4.10;;
54368;SDS011;40266;52.434;17.056;2023-08-21T16:01:56;8.00;;;4.10;;
54368;SDS011;40266;52.434;17.056;2023-08-21T16:04:40;6.20;;;4.50;;
54368;SDS011;40266;52.434;17.056;2023-08-21T16:07:23;9.40;;;3.90;;
54368;SDS011;40266;52.434;17.056;2023-08-21T16:10:07;5.80;;;3.40;;
54368;SDS011;40266;52.434;17.056;2023-08-21T16:12:51;9.00;;;3.50;;